createdAt,value
2019-05-29T00:00:35.510Z,0.00
2019-05-29T00:01:35.493Z,0.00
2019-05-29T00:02:35.494Z,0.00
2019-05-29T00:03:35.473Z,0.00
2019-05-29T00:04:35.508Z,0.00
2019-05-29T00:05:35.454Z,0.00
2019-05-29T00:06:35.458Z,0.00
2019-05-29T00:07:35.445Z,0.00
2019-05-29T00:08:35.480Z,0.00
2019-05-29T00:09:35.406Z,0.00
2019-05-29T00:10:35.393Z,0.00
2019-05-29T00:11:35.385Z,0.00
2019-05-29T00:12:35.398Z,0.00
2019-05-29T00:13:35.446Z,0.00
2019-05-29T00:14:35.352Z,0.00
2019-05-29T00:15:35.341Z,0.00
2019-05-29T00:16:35.330Z,0.00
2019-05-29T00:17:35.335Z,0.00
2019-05-29T00:18:35.308Z,0.00
2019-05-29T00:19:35.330Z,0.00
2019-05-29T00:20:35.288Z,0.00
2019-05-29T00:21:35.279Z,0.00
2019-05-29T00:22:35.280Z,0.00
2019-05-29T00:23:35.260Z,0.00
2019-05-29T00:24:35.246Z,0.00
2019-05-29T00:25:35.271Z,0.00
2019-05-29T00:26:35.221Z,0.00
2019-05-29T00:27:35.225Z,0.00
2019-05-29T00:28:35.202Z,0.00
2019-05-29T00:29:35.427Z,0.00
2019-05-29T00:30:35.365Z,0.00
2019-05-29T00:31:35.341Z,0.00
2019-05-29T00:32:35.440Z,0.00
2019-05-29T00:33:35.308Z,0.00
2019-05-29T00:34:35.241Z,0.00
2019-05-29T00:35:56.389Z,0.00
2019-05-29T00:37:00.569Z,0.00
2019-05-29T00:37:35.135Z,0.00
2019-05-29T00:39:28.417Z,0.00
2019-05-29T00:39:38.382Z,0.00
2019-05-29T00:40:40.531Z,0.00
2019-05-29T00:42:11.102Z,0.00
2019-05-29T00:42:35.097Z,0.00
2019-05-29T00:44:15.644Z,0.00
2019-05-29T00:45:37.652Z,0.00
2019-05-29T00:46:36.742Z,0.00
2019-05-29T00:48:45.646Z,0.00
2019-05-29T00:50:00.465Z,0.00
2019-05-29T00:50:35.080Z,0.00
2019-05-29T00:51:35.001Z,0.00
2019-05-29T00:52:34.947Z,0.00
2019-05-29T00:53:34.973Z,0.00
2019-05-29T00:54:34.924Z,0.00
2019-05-29T00:55:34.907Z,0.00
2019-05-29T00:56:34.903Z,0.00
2019-05-29T00:57:34.888Z,0.00
2019-05-29T00:58:34.893Z,0.00
2019-05-29T00:59:34.864Z,0.00
2019-05-29T01:00:34.856Z,0.00
2019-05-29T01:01:34.842Z,0.00
2019-05-29T01:02:34.840Z,0.00
2019-05-29T01:03:34.875Z,0.00
2019-05-29T01:04:34.808Z,0.00
2019-05-29T01:05:34.800Z,0.00
2019-05-29T01:06:34.837Z,0.00
2019-05-29T01:07:34.781Z,0.00
2019-05-29T01:08:34.781Z,0.00
2019-05-29T01:09:34.794Z,0.00
2019-05-29T01:10:34.746Z,0.00
2019-05-29T01:11:34.737Z,0.00
2019-05-29T01:12:34.729Z,0.00
2019-05-29T01:13:34.728Z,0.00
2019-05-29T01:14:49.207Z,0.00
2019-05-29T01:15:35.696Z,0.00
2019-05-29T01:16:34.681Z,0.00
2019-05-29T01:17:34.669Z,0.00
2019-05-29T01:18:34.672Z,0.00
2019-05-29T01:19:34.649Z,0.00
2019-05-29T01:20:34.665Z,0.00
2019-05-29T01:21:34.629Z,0.00
2019-05-29T01:22:34.622Z,0.00
2019-05-29T01:23:34.617Z,0.00
2019-05-29T01:24:34.596Z,0.00
2019-05-29T01:25:34.586Z,0.00
2019-05-29T01:26:34.626Z,0.00
2019-05-29T01:27:34.562Z,0.00
2019-05-29T01:28:34.571Z,0.00
2019-05-29T01:29:34.541Z,0.00
2019-05-29T01:30:34.531Z,0.00
2019-05-29T01:31:34.524Z,0.00
2019-05-29T01:32:34.541Z,0.00
2019-05-29T01:33:34.511Z,0.00
2019-05-29T01:34:34.486Z,0.00
2019-05-29T01:35:34.482Z,0.00
2019-05-29T01:36:34.464Z,0.00
2019-05-29T01:37:34.456Z,0.00
2019-05-29T01:38:34.498Z,0.00
2019-05-29T01:39:34.511Z,0.00
2019-05-29T01:40:34.422Z,0.00
2019-05-29T01:41:34.412Z,0.00
2019-05-29T01:42:34.412Z,0.00
2019-05-29T01:43:34.416Z,0.00
2019-05-29T01:44:34.417Z,0.00
2019-05-29T01:45:34.368Z,0.00
2019-05-29T01:46:34.358Z,0.00
2019-05-29T01:47:34.346Z,0.00
2019-05-29T01:48:34.334Z,0.00
2019-05-29T01:49:34.340Z,0.00
2019-05-29T01:50:34.337Z,0.00
2019-05-29T01:51:34.301Z,0.00
2019-05-29T01:52:34.292Z,0.00
2019-05-29T01:53:34.284Z,0.00
2019-05-29T01:54:34.281Z,0.00
2019-05-29T01:55:34.263Z,0.00
2019-05-29T01:56:34.281Z,0.00
2019-05-29T01:57:34.240Z,0.00
2019-05-29T01:58:34.227Z,0.00
2019-05-29T01:59:34.230Z,0.00
2019-05-29T02:00:34.209Z,0.00
2019-05-29T02:01:34.200Z,0.00
2019-05-29T02:02:34.215Z,0.00
2019-05-29T02:03:34.172Z,0.00
2019-05-29T02:04:34.175Z,0.00
2019-05-29T02:05:34.154Z,0.00
2019-05-29T02:06:34.140Z,0.00
2019-05-29T02:07:34.130Z,0.00
2019-05-29T02:08:34.183Z,0.00
2019-05-29T02:09:34.118Z,0.00
2019-05-29T02:10:34.097Z,0.00
2019-05-29T02:11:34.089Z,0.00
2019-05-29T02:12:34.077Z,0.00
2019-05-29T02:13:34.067Z,0.00
2019-05-29T02:14:34.103Z,0.00
2019-05-29T02:15:34.190Z,0.00
2019-05-29T02:16:34.037Z,0.00
2019-05-29T02:17:34.020Z,0.00
2019-05-29T02:18:34.010Z,0.00
2019-05-29T02:19:34.010Z,0.00
2019-05-29T02:20:34.028Z,0.00
2019-05-29T02:21:33.989Z,0.00
2019-05-29T02:22:33.973Z,0.00
2019-05-29T02:23:33.956Z,0.00
2019-05-29T02:24:33.956Z,0.00
2019-05-29T02:25:33.932Z,0.00
2019-05-29T02:26:33.924Z,0.00
2019-05-29T02:27:33.945Z,0.00
2019-05-29T02:28:33.901Z,0.00
2019-05-29T02:29:33.899Z,0.00
2019-05-29T02:30:33.881Z,0.00
2019-05-29T02:31:33.876Z,0.00
2019-05-29T02:32:33.863Z,0.00
2019-05-29T02:33:33.926Z,0.00
2019-05-29T02:34:33.855Z,0.00
2019-05-29T02:35:33.824Z,0.00
2019-05-29T02:36:33.863Z,0.00
2019-05-29T02:37:33.833Z,0.00
2019-05-29T02:38:33.802Z,0.00
2019-05-29T02:39:33.844Z,0.00
2019-05-29T02:40:33.774Z,0.00
2019-05-29T02:41:33.762Z,0.00
2019-05-29T02:42:33.750Z,0.00
2019-05-29T02:43:33.740Z,0.00
2019-05-29T02:44:33.771Z,0.00
2019-05-29T02:45:52.743Z,0.00
2019-05-29T02:46:34.706Z,0.00
2019-05-29T02:47:33.695Z,0.00
2019-05-29T02:48:33.686Z,0.00
2019-05-29T02:49:33.694Z,0.00
2019-05-29T02:50:33.710Z,0.00
2019-05-29T02:51:33.659Z,0.00
2019-05-29T02:52:33.639Z,0.00
2019-05-29T02:53:33.630Z,0.00
2019-05-29T02:54:33.650Z,0.00
2019-05-29T02:55:33.702Z,0.00
2019-05-29T02:56:33.597Z,0.00
2019-05-29T02:57:33.593Z,0.00
2019-05-29T02:58:33.612Z,0.00
2019-05-29T02:59:33.564Z,0.00
2019-05-29T03:00:33.570Z,0.00
2019-05-29T03:01:33.550Z,0.00
2019-05-29T03:02:33.535Z,0.00
2019-05-29T03:03:39.531Z,0.00
2019-05-29T03:04:34.551Z,0.00
2019-05-29T03:05:33.513Z,0.00
2019-05-29T03:06:33.490Z,4.00
2019-05-29T03:07:33.478Z,4.00
2019-05-29T03:08:34.393Z,4.00
2019-05-29T03:09:33.463Z,4.00
2019-05-29T03:10:33.499Z,4.00
2019-05-29T03:11:33.671Z,4.00
2019-05-29T03:12:33.801Z,4.00
2019-05-29T03:13:33.792Z,8.00
2019-05-29T03:14:34.728Z,4.00
2019-05-29T03:15:33.855Z,8.00
2019-05-29T03:16:34.912Z,8.00
2019-05-29T03:17:33.811Z,12.00
2019-05-29T03:18:34.955Z,8.00
2019-05-29T03:19:34.726Z,8.00
2019-05-29T03:20:34.536Z,4.00
2019-05-29T03:21:34.774Z,8.00
2019-05-29T03:22:35.136Z,16.00
2019-05-29T03:23:35.725Z,16.00
2019-05-29T03:24:34.925Z,16.00
2019-05-29T03:25:34.921Z,16.00
2019-05-29T03:26:34.889Z,24.00
2019-05-29T03:27:33.980Z,24.00
2019-05-29T03:28:35.041Z,28.00
2019-05-29T03:29:34.331Z,28.00
2019-05-29T03:30:41.351Z,28.00
2019-05-29T03:31:41.894Z,36.00
2019-05-29T03:32:42.357Z,36.00
2019-05-29T03:33:41.230Z,36.00
2019-05-29T03:34:39.258Z,40.00
2019-05-29T03:35:43.220Z,44.00
2019-05-29T03:36:39.311Z,52.00
2019-05-29T03:37:34.521Z,60.00
2019-05-29T03:38:34.643Z,68.00
2019-05-29T03:39:34.574Z,72.00
2019-05-29T03:40:34.987Z,80.00
2019-05-29T03:41:34.758Z,76.00
2019-05-29T03:42:34.347Z,76.00
2019-05-29T03:43:35.783Z,72.00
2019-05-29T03:44:35.152Z,72.00
2019-05-29T03:45:33.999Z,72.00
2019-05-29T03:46:41.135Z,72.00
2019-05-29T03:47:35.055Z,76.00
2019-05-29T03:48:34.422Z,76.00
2019-05-29T03:49:33.224Z,76.00
2019-05-29T03:50:34.762Z,84.00
2019-05-29T03:51:35.160Z,92.00
2019-05-29T03:52:34.728Z,80.00
2019-05-29T03:53:33.829Z,84.00
2019-05-29T03:54:34.943Z,88.00
2019-05-29T03:55:33.726Z,100.00
2019-05-29T03:56:34.650Z,108.00
2019-05-29T03:57:33.898Z,128.00
2019-05-29T03:58:33.556Z,188.00
2019-05-29T03:59:33.444Z,208.00
2019-05-29T04:00:41.814Z,236.00
2019-05-29T04:01:35.563Z,252.00
2019-05-29T04:02:33.319Z,276.00
2019-05-29T04:03:33.489Z,308.00
2019-05-29T04:04:33.529Z,344.00
2019-05-29T04:05:33.506Z,392.00
2019-05-29T04:06:33.382Z,428.00
2019-05-29T04:07:33.752Z,456.00
2019-05-29T04:08:33.572Z,464.00
2019-05-29T04:09:33.408Z,464.00
2019-05-29T04:10:34.960Z,468.00
2019-05-29T04:11:33.203Z,500.00
2019-05-29T04:12:33.482Z,520.00
2019-05-29T04:13:34.043Z,524.00
2019-05-29T04:14:33.508Z,512.00
2019-05-29T04:15:33.837Z,504.00
2019-05-29T04:16:52.406Z,504.00
2019-05-29T04:17:33.798Z,508.00
2019-05-29T04:18:33.872Z,508.00
2019-05-29T04:19:34.872Z,500.00
2019-05-29T04:20:33.600Z,476.00
2019-05-29T04:21:34.219Z,448.00
2019-05-29T04:22:34.257Z,428.00
2019-05-29T04:23:34.101Z,404.00
2019-05-29T04:24:33.969Z,384.00
2019-05-29T04:25:36.023Z,364.00
2019-05-29T04:26:34.006Z,352.00
2019-05-29T04:27:34.178Z,340.00
2019-05-29T04:28:34.485Z,336.00
2019-05-29T04:29:33.823Z,336.00
2019-05-29T04:30:34.188Z,332.00
2019-05-29T04:31:34.345Z,328.00
2019-05-29T04:32:34.069Z,328.00
2019-05-29T04:33:33.111Z,332.00
2019-05-29T04:34:34.241Z,340.00
2019-05-29T04:35:32.673Z,352.00
2019-05-29T04:36:33.034Z,368.00
2019-05-29T04:37:32.664Z,388.00
2019-05-29T04:38:33.782Z,416.00
2019-05-29T04:39:32.801Z,436.00
2019-05-29T04:40:32.871Z,472.00
2019-05-29T04:41:32.824Z,496.00
2019-05-29T04:42:33.978Z,524.00
2019-05-29T04:43:33.361Z,536.00
2019-05-29T04:44:33.425Z,556.00
2019-05-29T04:45:33.193Z,584.00
2019-05-29T04:46:33.935Z,620.00
2019-05-29T04:47:33.303Z,660.00
2019-05-29T04:48:34.058Z,704.00
2019-05-29T04:49:33.729Z,748.00
2019-05-29T04:50:33.489Z,792.00
2019-05-29T04:51:33.069Z,820.00
2019-05-29T04:52:33.838Z,828.00
2019-05-29T04:53:33.435Z,812.00
2019-05-29T04:54:33.381Z,800.00
2019-05-29T04:55:32.724Z,792.00
2019-05-29T04:56:32.766Z,784.00
2019-05-29T04:57:32.835Z,780.00
2019-05-29T04:58:32.851Z,788.00
2019-05-29T04:59:33.054Z,820.00
2019-05-29T05:00:33.105Z,868.00
2019-05-29T05:01:33.033Z,908.00
2019-05-29T05:02:33.033Z,932.00
2019-05-29T05:03:33.183Z,940.00
2019-05-29T05:04:33.201Z,932.00
2019-05-29T05:05:33.261Z,900.00
2019-05-29T05:06:33.205Z,876.00
2019-05-29T05:07:33.154Z,856.00
2019-05-29T05:08:33.253Z,852.00
2019-05-29T05:09:33.328Z,860.00
2019-05-29T05:10:33.331Z,904.00
2019-05-29T05:11:33.335Z,968.00
2019-05-29T05:12:32.435Z,1044.00
2019-05-29T05:13:32.108Z,1096.00
2019-05-29T05:14:32.100Z,1104.00
2019-05-29T05:15:32.095Z,1092.00
2019-05-29T05:16:32.092Z,1104.00
2019-05-29T05:17:32.099Z,1092.00
2019-05-29T05:18:32.051Z,1052.00
2019-05-29T05:19:32.032Z,1004.00
2019-05-29T05:20:32.076Z,960.00
2019-05-29T05:21:32.053Z,932.00
2019-05-29T05:22:32.099Z,940.00
2019-05-29T05:23:32.036Z,996.00
2019-05-29T05:24:32.193Z,1092.00
2019-05-29T05:25:32.215Z,1216.00
2019-05-29T05:26:32.160Z,1368.00
2019-05-29T05:27:32.190Z,1536.00
2019-05-29T05:28:32.208Z,1700.00
2019-05-29T05:29:32.142Z,1876.00
2019-05-29T05:30:32.389Z,2112.00
2019-05-29T05:31:32.391Z,2432.00
2019-05-29T05:32:32.626Z,2828.00
2019-05-29T05:33:32.406Z,3264.00
2019-05-29T05:34:32.571Z,3576.00
2019-05-29T05:35:32.618Z,3568.00
2019-05-29T05:36:32.669Z,3232.00
2019-05-29T05:37:32.671Z,2980.00
2019-05-29T05:38:32.607Z,2980.00
2019-05-29T05:39:32.762Z,3088.00
2019-05-29T05:40:33.013Z,3144.00
2019-05-29T05:41:32.719Z,3112.00
2019-05-29T05:42:32.894Z,2988.00
2019-05-29T05:43:32.849Z,2856.00
2019-05-29T05:44:32.756Z,2772.00
2019-05-29T05:45:32.894Z,2752.00
2019-05-29T05:46:32.855Z,2852.00
2019-05-29T05:47:44.940Z,3016.00
2019-05-29T05:48:33.011Z,3204.00
2019-05-29T05:49:31.707Z,3408.00
2019-05-29T05:50:31.705Z,3628.00
2019-05-29T05:51:31.741Z,3924.00
2019-05-29T05:52:31.701Z,4304.00
2019-05-29T05:53:31.682Z,4784.00
2019-05-29T05:54:31.659Z,5364.00
2019-05-29T05:55:31.654Z,5948.00
2019-05-29T05:56:31.633Z,6424.00
2019-05-29T05:57:31.645Z,6656.00
2019-05-29T05:58:31.724Z,6624.00
2019-05-29T05:59:31.615Z,6520.00
2019-05-29T06:00:32.013Z,6452.00
2019-05-29T06:01:31.788Z,6240.00
2019-05-29T06:02:31.747Z,5768.00
2019-05-29T06:03:31.879Z,5292.00
2019-05-29T06:04:31.803Z,5076.00
2019-05-29T06:05:32.109Z,5108.00
2019-05-29T06:06:31.961Z,5288.00
2019-05-29T06:07:31.977Z,5392.00
2019-05-29T06:08:32.030Z,5384.00
2019-05-29T06:09:32.666Z,5428.00
2019-05-29T06:10:32.052Z,5596.00
2019-05-29T06:11:32.203Z,5928.00
2019-05-29T06:12:32.258Z,6292.00
2019-05-29T06:13:32.154Z,6332.00
2019-05-29T06:14:32.328Z,6132.00
2019-05-29T06:15:32.337Z,5976.00
2019-05-29T06:16:32.864Z,6072.00
2019-05-29T06:17:32.332Z,6316.00
2019-05-29T06:18:32.397Z,6376.00
2019-05-29T06:19:32.711Z,6208.00
2019-05-29T06:20:32.538Z,5980.00
2019-05-29T06:21:32.488Z,5832.00
2019-05-29T06:22:32.814Z,5716.00
2019-05-29T06:23:32.692Z,5632.00
2019-05-29T06:24:31.326Z,5564.00
2019-05-29T06:25:31.481Z,5504.00
2019-05-29T06:26:31.310Z,5352.00
2019-05-29T06:27:31.321Z,5156.00
2019-05-29T06:28:31.298Z,5152.00
2019-05-29T06:29:31.360Z,5428.00
2019-05-29T06:30:31.261Z,5796.00
2019-05-29T06:31:31.249Z,6136.00
2019-05-29T06:32:31.252Z,6400.00
2019-05-29T06:33:31.268Z,6636.00
2019-05-29T06:34:31.210Z,6896.00
2019-05-29T06:35:31.246Z,7152.00
2019-05-29T06:36:31.203Z,7352.00
2019-05-29T06:37:31.194Z,7500.00
2019-05-29T06:38:31.208Z,7744.00
2019-05-29T06:39:31.165Z,8104.00
2019-05-29T06:40:31.150Z,8520.00
2019-05-29T06:41:31.150Z,8712.00
2019-05-29T06:42:31.144Z,8928.00
2019-05-29T06:43:31.191Z,8876.00
2019-05-29T06:44:31.114Z,8964.00
2019-05-29T06:45:31.094Z,8980.00
2019-05-29T06:46:31.085Z,8740.00
2019-05-29T06:47:31.080Z,8324.00
2019-05-29T06:48:42.376Z,7784.00
2019-05-29T06:49:32.055Z,7208.00
2019-05-29T06:50:31.158Z,6904.00
2019-05-29T06:51:31.071Z,6756.00
2019-05-29T06:52:31.031Z,6996.00
2019-05-29T06:53:31.042Z,7412.00
2019-05-29T06:54:31.013Z,7736.00
2019-05-29T06:55:30.990Z,7808.00
2019-05-29T06:56:30.978Z,7896.00
2019-05-29T06:57:30.973Z,8016.00
2019-05-29T06:58:31.019Z,8320.00
2019-05-29T06:59:30.949Z,8456.00
2019-05-29T07:00:35.216Z,8340.00
2019-05-29T07:01:30.917Z,8008.00
2019-05-29T07:02:31.890Z,7780.00
2019-05-29T07:03:30.918Z,7712.00
2019-05-29T07:04:30.905Z,7684.00
2019-05-29T07:05:30.914Z,8088.00
2019-05-29T07:06:30.890Z,8428.00
2019-05-29T07:07:30.873Z,8448.00
2019-05-29T07:08:38.985Z,8268.00
2019-05-29T07:09:31.882Z,7992.00
2019-05-29T07:10:30.906Z,7900.00
2019-05-29T07:11:30.814Z,8156.00
2019-05-29T07:12:30.799Z,8700.00
2019-05-29T07:13:34.707Z,9324.00
2019-05-29T07:14:30.789Z,9944.00
2019-05-29T07:15:30.761Z,10808.00
2019-05-29T07:16:43.918Z,12208.00
2019-05-29T07:17:31.749Z,14124.00
2019-05-29T07:18:30.738Z,15684.00
2019-05-29T07:19:47.725Z,16704.00
2019-05-29T07:20:31.718Z,16832.00
2019-05-29T07:21:30.697Z,15912.00
2019-05-29T07:22:30.733Z,15044.00
2019-05-29T07:23:30.733Z,15424.00
2019-05-29T07:24:30.701Z,17248.00
2019-05-29T07:25:30.654Z,18688.00
2019-05-29T07:26:30.658Z,19136.00
2019-05-29T07:27:30.633Z,19552.00
2019-05-29T07:28:30.628Z,20192.00
2019-05-29T07:29:30.649Z,21632.00
2019-05-29T07:30:30.641Z,23584.00
2019-05-29T07:31:30.606Z,24928.00
2019-05-29T07:32:30.583Z,24960.00
2019-05-29T07:33:30.569Z,24640.00
2019-05-29T07:34:30.570Z,24352.00
2019-05-29T07:35:30.543Z,24128.00
2019-05-29T07:36:30.562Z,23264.00
2019-05-29T07:37:30.535Z,23456.00
2019-05-29T07:38:30.516Z,23264.00
2019-05-29T07:39:30.516Z,23456.00
2019-05-29T07:40:30.492Z,23712.00
2019-05-29T07:41:30.487Z,24192.00
2019-05-29T07:42:30.535Z,25824.00
2019-05-29T07:43:30.461Z,28032.00
2019-05-29T07:44:30.456Z,33344.00
2019-05-29T07:45:30.434Z,31040.00
2019-05-29T07:46:30.430Z,28992.00
2019-05-29T07:47:30.428Z,27936.00
2019-05-29T07:48:30.418Z,27328.00
2019-05-29T07:49:39.127Z,27584.00
2019-05-29T07:50:31.378Z,26272.00
2019-05-29T07:51:30.370Z,25600.00
2019-05-29T07:52:30.412Z,25952.00
2019-05-29T07:53:33.617Z,27904.00
2019-05-29T07:54:30.380Z,29120.00
2019-05-29T07:55:30.339Z,30720.00
2019-05-29T07:56:30.329Z,32672.00
2019-05-29T07:57:30.316Z,33632.00
2019-05-29T07:58:30.302Z,31328.00
2019-05-29T07:59:30.315Z,40352.00
2019-05-29T08:00:35.592Z,42624.00
2019-05-29T08:01:31.268Z,40160.00
2019-05-29T08:02:30.246Z,47872.00
2019-05-29T08:03:30.261Z,35104.00
2019-05-29T08:04:30.242Z,35072.00
2019-05-29T08:05:30.220Z,37536.00
2019-05-29T08:06:30.234Z,35968.00
2019-05-29T08:07:30.196Z,35552.00
2019-05-29T08:08:30.183Z,39488.00
2019-05-29T08:09:30.182Z,39744.00
2019-05-29T08:10:30.164Z,50016.00
2019-05-29T08:11:30.154Z,32256.00
2019-05-29T08:12:30.162Z,29408.00
2019-05-29T08:13:30.134Z,26048.00
2019-05-29T08:14:30.130Z,24704.00
2019-05-29T08:15:30.111Z,24928.00
2019-05-29T08:16:30.106Z,25536.00
2019-05-29T08:17:30.090Z,26432.00
2019-05-29T08:18:30.100Z,27616.00
2019-05-29T08:19:30.083Z,29120.00
2019-05-29T08:20:30.051Z,30240.00
2019-05-29T08:21:30.053Z,31520.00
2019-05-29T08:22:34.261Z,33056.00
2019-05-29T08:23:30.025Z,33376.00
2019-05-29T08:24:30.078Z,33888.00
2019-05-29T08:25:30.030Z,34368.00
2019-05-29T08:26:29.986Z,35584.00
2019-05-29T08:27:29.977Z,37856.00
2019-05-29T08:28:29.975Z,40096.00
2019-05-29T08:29:29.981Z,38784.00
2019-05-29T08:30:30.069Z,40544.00
2019-05-29T08:31:29.933Z,76544.00
2019-05-29T08:32:29.923Z,47840.00
2019-05-29T08:33:29.916Z,42368.00
2019-05-29T08:34:29.922Z,36448.00
2019-05-29T08:35:29.893Z,45952.00
2019-05-29T08:36:29.905Z,54656.00
2019-05-29T08:37:29.867Z,75648.00
2019-05-29T08:38:29.861Z,77696.00
2019-05-29T08:39:35.901Z,77568.00
2019-05-29T08:40:30.844Z,49856.00
2019-05-29T08:41:29.857Z,64256.00
2019-05-29T08:42:29.813Z,65056.00
2019-05-29T08:43:29.803Z,73792.00
2019-05-29T08:44:29.817Z,41728.00
2019-05-29T08:45:29.787Z,38816.00
2019-05-29T08:46:33.151Z,56224.00
2019-05-29T08:47:29.789Z,44160.00
2019-05-29T08:48:29.751Z,55968.00
2019-05-29T08:49:29.756Z,51424.00
2019-05-29T08:51:28.586Z,52192.00
2019-05-29T08:52:28.572Z,26816.00
2019-05-29T08:53:28.571Z,26528.00
2019-05-29T08:54:28.561Z,27744.00
2019-05-29T08:55:28.558Z,60032.00
2019-05-29T08:56:28.706Z,70560.00
2019-05-29T08:57:28.528Z,61536.00
2019-05-29T08:58:28.512Z,60704.00
2019-05-29T08:59:28.500Z,48064.00
2019-05-29T09:00:28.533Z,43264.00
2019-05-29T09:01:28.487Z,38528.00
2019-05-29T09:02:28.466Z,39136.00
2019-05-29T09:03:28.460Z,50432.00
2019-05-29T09:04:28.466Z,73536.00
2019-05-29T09:05:28.486Z,31360.00
2019-05-29T09:06:28.423Z,28512.00
2019-05-29T09:07:28.411Z,22624.00
2019-05-29T09:08:28.405Z,19968.00
2019-05-29T09:09:28.391Z,19616.00
2019-05-29T09:10:28.395Z,20736.00
2019-05-29T09:11:28.371Z,22688.00
2019-05-29T09:12:29.972Z,25152.00
2019-05-29T09:13:28.350Z,28416.00
2019-05-29T09:14:28.338Z,31776.00
2019-05-29T09:15:28.338Z,32480.00
2019-05-29T09:16:28.346Z,48928.00
2019-05-29T09:17:28.302Z,27936.00
2019-05-29T09:18:28.290Z,28448.00
2019-05-29T09:19:28.307Z,30336.00
2019-05-29T09:20:43.566Z,34400.00
2019-05-29T09:21:29.261Z,36992.00
2019-05-29T09:22:28.247Z,31424.00
2019-05-29T09:23:28.238Z,33248.00
2019-05-29T09:24:28.227Z,43008.00
2019-05-29T09:25:28.266Z,62880.00
2019-05-29T09:26:28.210Z,31392.00
2019-05-29T09:27:28.193Z,35328.00
2019-05-29T09:28:28.184Z,51904.00
2019-05-29T09:29:28.230Z,59424.00
2019-05-29T09:30:28.199Z,84960.00
2019-05-29T09:31:28.147Z,99680.00
2019-05-29T09:32:48.477Z,91296.00
2019-05-29T09:33:29.128Z,88384.00
2019-05-29T09:34:28.153Z,95264.00
2019-05-29T09:35:28.129Z,84768.00
2019-05-29T09:36:28.100Z,74048.00
2019-05-29T09:37:28.087Z,93248.00
2019-05-29T09:38:28.076Z,43584.00
2019-05-29T09:39:28.065Z,36320.00
2019-05-29T09:40:28.083Z,33984.00
2019-05-29T09:41:28.053Z,34720.00
2019-05-29T09:42:28.033Z,36480.00
2019-05-29T09:43:30.667Z,42400.00
2019-05-29T09:44:38.077Z,37696.00
2019-05-29T09:45:29.028Z,20832.00
2019-05-29T09:46:28.011Z,71456.00
2019-05-29T09:47:27.984Z,64256.00
2019-05-29T09:48:28.825Z,60736.00
2019-05-29T09:49:27.958Z,44640.00
2019-05-29T09:50:46.491Z,41760.00
2019-05-29T09:51:28.936Z,57728.00
2019-05-29T09:52:30.652Z,57632.00
2019-05-29T09:53:27.986Z,70720.00
2019-05-29T09:54:28.111Z,73312.00
2019-05-29T09:55:27.920Z,69760.00
2019-05-29T09:56:27.962Z,42496.00
2019-05-29T09:57:27.879Z,36000.00
2019-05-29T09:58:27.858Z,34336.00
2019-05-29T09:59:27.852Z,33696.00
2019-05-29T10:00:27.932Z,33728.00
2019-05-29T10:01:27.845Z,34784.00
2019-05-29T10:02:27.823Z,38304.00
2019-05-29T10:03:27.810Z,71584.00
2019-05-29T10:04:27.804Z,48032.00
2019-05-29T10:05:27.822Z,78208.00
2019-05-29T10:06:27.844Z,42720.00
2019-05-29T10:07:27.767Z,109408.00
2019-05-29T10:08:27.749Z,51744.00
2019-05-29T10:09:27.742Z,41344.00
2019-05-29T10:10:27.736Z,59424.00
2019-05-29T10:11:27.743Z,48800.00
2019-05-29T10:12:27.713Z,53056.00
2019-05-29T10:13:27.749Z,72448.00
2019-05-29T10:14:27.688Z,53440.00
2019-05-29T10:15:27.683Z,46976.00
2019-05-29T10:16:27.779Z,56416.00
2019-05-29T10:17:27.649Z,95872.00
2019-05-29T10:18:32.507Z,101472.00
2019-05-29T10:19:28.668Z,99456.00
2019-05-29T10:20:27.626Z,95168.00
2019-05-29T10:21:39.408Z,95072.00
2019-05-29T10:22:28.677Z,91680.00
2019-05-29T10:23:27.597Z,57024.00
2019-05-29T10:24:27.603Z,76544.00
2019-05-29T10:25:27.591Z,82304.00
2019-05-29T10:26:27.581Z,83648.00
2019-05-29T10:27:27.614Z,90240.00
2019-05-29T10:28:27.578Z,92704.00
2019-05-29T10:29:27.595Z,94464.00
2019-05-29T10:30:27.519Z,95968.00
2019-05-29T10:31:27.518Z,97792.00
2019-05-29T10:32:27.507Z,100512.00
2019-05-29T10:33:27.484Z,102592.00
2019-05-29T10:34:27.485Z,101824.00
2019-05-29T10:35:27.505Z,102560.00
2019-05-29T10:36:27.480Z,102464.00
2019-05-29T10:37:27.458Z,87744.00
2019-05-29T10:38:27.440Z,56224.00
2019-05-29T10:39:27.427Z,88992.00
2019-05-29T10:40:27.425Z,109120.00
2019-05-29T10:41:27.425Z,111936.00
2019-05-29T10:42:27.449Z,109472.00
2019-05-29T10:43:34.313Z,59712.00
2019-05-29T10:44:28.370Z,46048.00
2019-05-29T10:45:27.361Z,50528.00
2019-05-29T10:46:27.363Z,55296.00
2019-05-29T10:47:27.356Z,80064.00
2019-05-29T10:48:27.376Z,32480.00
2019-05-29T10:49:27.367Z,59360.00
2019-05-29T10:50:27.304Z,20800.00
2019-05-29T10:51:27.317Z,18144.00
2019-05-29T10:52:27.301Z,16224.00
2019-05-29T10:53:27.277Z,15008.00
2019-05-29T10:54:27.274Z,13984.00
2019-05-29T10:55:27.323Z,14080.00
2019-05-29T10:56:27.275Z,14480.00
2019-05-29T10:57:27.237Z,15008.00
2019-05-29T10:58:27.237Z,15712.00
2019-05-29T10:59:27.218Z,16288.00
2019-05-29T11:00:27.209Z,16192.00
2019-05-29T11:01:27.210Z,16320.00
2019-05-29T11:02:27.277Z,16576.00
2019-05-29T11:03:27.179Z,16832.00
2019-05-29T11:04:27.161Z,17216.00
2019-05-29T11:05:27.161Z,17600.00
2019-05-29T11:06:27.173Z,18336.00
2019-05-29T11:07:27.145Z,19072.00
2019-05-29T11:08:27.116Z,19744.00
2019-05-29T11:09:42.932Z,20256.00
2019-05-29T11:10:28.101Z,20320.00
2019-05-29T11:11:27.090Z,20576.00
2019-05-29T11:12:27.102Z,20704.00
2019-05-29T11:13:27.062Z,20992.00
2019-05-29T11:14:27.104Z,21312.00
2019-05-29T11:15:27.041Z,21888.00
2019-05-29T11:16:27.023Z,22400.00
2019-05-29T11:17:27.051Z,22912.00
2019-05-29T11:18:27.017Z,23520.00
2019-05-29T11:19:27.007Z,24224.00
2019-05-29T11:20:27.055Z,24896.00
2019-05-29T11:21:26.992Z,25536.00
2019-05-29T11:22:26.983Z,26208.00
2019-05-29T11:23:26.985Z,26944.00
2019-05-29T11:24:26.981Z,28672.00
2019-05-29T11:25:27.887Z,30368.00
2019-05-29T11:26:26.996Z,30208.00
2019-05-29T11:27:26.943Z,31616.00
2019-05-29T11:28:26.905Z,34336.00
2019-05-29T11:29:26.894Z,36928.00
2019-05-29T11:30:26.910Z,43008.00
2019-05-29T11:31:26.876Z,54400.00
2019-05-29T11:32:26.890Z,82944.00
2019-05-29T11:33:26.854Z,80704.00
2019-05-29T11:34:26.894Z,94080.00
2019-05-29T11:35:26.833Z,114400.00
2019-05-29T11:36:26.822Z,111328.00
2019-05-29T11:37:26.845Z,119552.00
2019-05-29T11:38:26.818Z,121184.00
2019-05-29T11:39:26.775Z,119648.00
2019-05-29T11:40:26.793Z,117280.00
2019-05-29T11:41:26.976Z,119584.00
2019-05-29T11:42:28.201Z,83008.00
2019-05-29T11:43:26.753Z,28096.00
2019-05-29T11:44:26.739Z,27616.00
2019-05-29T11:45:26.715Z,28000.00
2019-05-29T11:46:26.740Z,28672.00
2019-05-29T11:47:26.741Z,29536.00
2019-05-29T11:48:26.691Z,31872.00
2019-05-29T11:49:26.679Z,35392.00
2019-05-29T11:50:26.661Z,37792.00
2019-05-29T11:51:26.673Z,41536.00
2019-05-29T11:52:41.791Z,52512.00
2019-05-29T11:53:27.667Z,121472.00
2019-05-29T11:54:26.662Z,119008.00
2019-05-29T11:55:26.625Z,116384.00
2019-05-29T11:56:26.614Z,108896.00
2019-05-29T11:57:26.639Z,105376.00
2019-05-29T11:58:31.132Z,102848.00
2019-05-29T11:59:27.815Z,24640.00
2019-05-29T12:00:26.633Z,19776.00
2019-05-29T12:01:26.552Z,18208.00
2019-05-29T12:02:26.564Z,17600.00
2019-05-29T12:03:26.575Z,17696.00
2019-05-29T12:04:27.071Z,17888.00
2019-05-29T12:05:26.508Z,17984.00
2019-05-29T12:06:26.548Z,18048.00
2019-05-29T12:07:26.505Z,18240.00
2019-05-29T12:08:26.478Z,18528.00
2019-05-29T12:09:32.835Z,18912.00
2019-05-29T12:10:27.450Z,19264.00
2019-05-29T12:11:26.443Z,19552.00
2019-05-29T12:12:26.453Z,19744.00
2019-05-29T12:13:26.412Z,20032.00
2019-05-29T12:14:26.416Z,20448.00
2019-05-29T12:15:26.466Z,20992.00
2019-05-29T12:16:26.405Z,21312.00
2019-05-29T12:17:26.680Z,21600.00
2019-05-29T12:18:26.374Z,21920.00
2019-05-29T12:19:26.411Z,22336.00
2019-05-29T12:20:28.841Z,22848.00
2019-05-29T12:21:26.337Z,23456.00